Saranac, Michigan
Current Conditions -  °F | °C
As of 7:13 PM on Sunday 25 Jan 2015 (Local Time) from KY70 Reporting Station
Clear Clear  
Wind Chill:   Ceiling: Unl
Heat Index: 19°   Visibility: 10mi
Dew Point: 12°   Wind: 15mph
Humidity: 74%   Direction: 50°NE
Pressure: 29.97"   Gusts: 21mph
Location:  42.93°N, 85.21°W
Report Text: KY70 260013Z AUTO 05013G18KT 10SM CLR M07/M11 A2997 RMK AO2 T10701110
Loading
Personal Weather Stations






























Interactive Weather Map New forecast layout! Learn more

10-Day Weather Forecast

Advertisements
Track Severe Weather on mobile